Search for airport 
image banner adimage banner adimage banner ad
image banner ad

UADD - Taraz

Located in Taraz, Kazakhstan

ICAO - UADD, IATA - DMB

Data provided by Airmate  

General information

Coordinates: N42°51'16" E71°18'8"
Elevation is 2190 feet MSL.
Magnetic variation is 6° East
View others Airports in Zhambyl

Operational data

Special qualification required
Current time UTC:
Current local time:
Weather
METAR: UADD 082200Z 17004MPS 9999 NSC 17/09 Q1012 R13/0///65 NOSIG RMK QFE702/0937
TAF: TAF UADD 082001Z 0821/0906 22005G10MPS 9999 SCT050CB BKN100 TEMPO 0903/0906 -TSRA BKN020CB
View NOTAMs / SUP AIP / TFR affecting this airport [VIEW]
Communications frequencies: [VIEW]

Runways:

RWY identifierQFULength (ft)Width (ft)SurfaceLDA (ft)
13137°11486148CONC+ASPH11486
31317°11486148CONC+ASPH10108

Airport contact information

Address: Taraz Kazakhstan

Satellite view of UADD